Last 24 Hours

Coyote Canyon

10 Minute Data | America/Los_Angeles
as of 9/2/26 8:30 AM PDT
Date & Time Temp (°F) Dew Pt (°F) RH (%) Wind Spd (mph) Wind Dir (°) Wind Gust (mph) Wind Gst Dir (°) Daily Max Temp (°F) Daily Min Temp (°F)
9/2/26 - 0820 68.2 21.5 17 18.3 W | 280 24.8 W | 270 68.6 57.6
9/2/26 - 0810 67.1 22.2 18 15.9 WNW | 282 21.8 WNW | 284 67.6 57.6
9/2/26 - 0800 65.7 22.6 19 15.3 WNW | 285 21.0 W | 261 66.4 57.6
9/2/26 - 0750 64.0 22.4 20 14.4 WNW | 289 19.4 WNW | 302 64.9 57.6
9/2/26 - 0740 62.4 22.3 21 13.0 WNW | 289 18.3 WNW | 293 63.9 57.6
9/2/26 - 0730 62.5 21.8 21 15.5 WNW | 285 21.6 WNW | 287 63.9 57.6
9/2/26 - 0720 61.0 21.6 22 16.1 WNW | 288 20.8 WNW | 290 63.9 57.6
9/2/26 - 0710 59.1 21.7 23 17.5 WNW | 296 20.8 WNW | 302 63.9 57.6
9/2/26 - 0700 57.9 21.9 25 17.9 WNW | 296 22.2 WNW | 291 63.9 57.6
9/2/26 - 0650 59.1 22.2 24 18.4 WNW | 288 22.4 WNW | 288 63.9 57.8
9/2/26 - 0640 59.5 22.6 24 18.8 WNW | 284 23.4 W | 275 63.9 57.8
9/2/26 - 0630 59.5 23.2 24 18.5 WNW | 288 24.0 WNW | 286 63.9 57.8
9/2/26 - 0620 60.7 23.5 24 19.0 WNW | 294 22.7 WNW | 292 63.9 57.8
9/2/26 - 0610 62.3 23.4 22 19.1 WNW | 300 25.2 WNW | 303 63.9 57.8
9/2/26 - 0600 62.6 23.8 23 19.4 WNW | 302 25.2 WNW | 301 63.9 57.8
9/2/26 - 0550 61.9 24.9 24 20.6 WNW | 303 27.6 WNW | 302 63.9 57.8
9/2/26 - 0540 61.7 26.0 25 21.6 WNW | 302 27.8 NW | 307 63.9 57.8
9/2/26 - 0530 61.8 25.5 25 21.3 WNW | 300 28.4 WNW | 298 63.9 57.8
9/2/26 - 0520 62.0 24.9 24 21.0 WNW | 301 30.0 NW | 306 63.9 57.8
9/2/26 - 0510 63.1 24.3 23 22.2 WNW | 300 27.0 WNW | 302 63.9 57.8
9/2/26 - 0500 63.2 24.3 23 22.2 NW | 305 29.2 WNW | 302 63.7 57.8
9/2/26 - 0450 62.4 24.4 23 21.5 NW | 307 31.2 WNW | 300 63.4 57.8
9/2/26 - 0440 60.5 24.6 25 19.2 WNW | 302 25.9 NW | 310 61.0 57.8
9/2/26 - 0430 60.2 25.0 26 19.8 WNW | 301 24.5 NW | 306 60.9 57.8
9/2/26 - 0420 59.8 25.2 26 19.1 WNW | 300 23.0 WNW | 292 60.4 57.8
9/2/26 - 0410 59.0 25.5 27 18.9 WNW | 300 22.1 WNW | 298 60.4 57.8
9/2/26 - 0400 58.2 25.9 29 18.2 WNW | 298 21.6 WNW | 303 60.4 57.8
9/2/26 - 0350 58.4 26.4 29 19.4 WNW | 298 22.9 WNW | 294 60.4 58.2
9/2/26 - 0340 58.8 27.0 29 18.4 WNW | 299 22.9 WNW | 296 60.4 58.2
9/2/26 - 0330 59.5 27.6 29 17.4 WNW | 300 21.3 WNW | 299 60.4 58.4
9/2/26 - 0320 58.9 27.8 30 17.6 WNW | 302 22.9 WNW | 303 60.4 58.4
9/2/26 - 0310 58.8 27.8 30 17.6 WNW | 300 22.1 WNW | 300 60.4 58.4
9/2/26 - 0300 58.7 26.4 29 17.1 NW | 304 22.6 WNW | 301 60.4 58.4
9/2/26 - 0250 58.6 25.4 28 17.8 WNW | 300 22.4 WNW | 297 60.4 58.4
9/2/26 - 0240 58.8 25.3 27 16.9 WNW | 299 22.5 WNW | 301 60.4 58.7
9/2/26 - 0230 59.0 25.1 27 16.6 WNW | 299 21.3 WNW | 293 60.4 58.8
9/2/26 - 0220 59.7 25.3 27 17.0 WNW | 299 21.5 WNW | 300 60.4 59.4
9/2/26 - 0210 60.1 25.3 26 16.5 WNW | 303 21.5 WNW | 299 60.4 59.6
9/2/26 - 0200 60.1 25.2 26 15.7 NW | 305 20.5 WNW | 299 60.4 59.6
9/2/26 - 0150 60.1 25.3 26 15.3 NW | 307 23.8 WNW | 301 60.4 59.6
9/2/26 - 0140 60.3 24.9 26 15.2 NW | 306 24.0 NW | 304 60.4 59.6
9/2/26 - 0130 60.2 24.2 25 16.4 NW | 306 22.5 WNW | 302 60.4 59.6
9/2/26 - 0120 59.9 23.9 25 14.4 NW | 309 20.0 NW | 309 60.1 59.6
9/2/26 - 0110 60.0 23.7 25 14.9 NW | 308 20.6 NW | 306 60.1 59.6
9/2/26 - 0100 59.8 23.5 25 15.3 NW | 307 22.1 WNW | 291 81.0 58.1
9/2/26 - 0050 59.5 22.4 24 16.2 NW | 308 22.0 NW | 307 81.0 58.1
9/2/26 - 0040 59.2 22.2 24 14.6 NW | 306 20.2 WNW | 302 81.0 58.1
9/2/26 - 0030 59.0 22.5 24 14.3 NW | 306 18.8 WNW | 298 81.0 58.1
9/2/26 - 0020 58.6 23.3 25 14.0 NW | 306 18.7 NW | 310 81.0 58.1
9/2/26 - 0010 58.8 23.6 26 15.8 WNW | 302 21.0 WNW | 298 81.0 58.1
9/2/26 - 0000 58.2 24.0 26 15.6 WNW | 301 19.9 WNW | 296 81.0 58.1
9/1/26 - 2350 58.8 24.1 26 16.8 WNW | 300 21.6 WNW | 286 81.0 58.4
9/1/26 - 2340 59.1 24.5 26 18.6 WNW | 302 24.6 NW | 305 81.0 58.9
9/1/26 - 2330 59.6 24.8 26 20.5 WNW | 298 25.3 WNW | 296 81.0 59.5
9/1/26 - 2320 60.1 26.3 27 20.2 WNW | 300 24.8 WNW | 293 81.0 59.6
9/1/26 - 2310 60.6 27.3 28 19.6 WNW | 299 24.6 WNW | 302 81.0 60.3
9/1/26 - 2300 60.9 27.2 28 18.2 NW | 304 24.7 WNW | 300 81.0 60.3
9/1/26 - 2250 61.1 25.7 26 17.7 WNW | 302 23.0 WNW | 296 81.0 60.3
9/1/26 - 2240 60.7 25.2 26 15.8 WNW | 302 22.7 NW | 306 81.0 60.3
9/1/26 - 2230 60.9 25.3 26 14.7 WNW | 300 19.9 WNW | 303 81.0 60.3
9/1/26 - 2220 60.7 25.6 26 14.4 WNW | 303 20.4 NW | 306 81.0 60.3
9/1/26 - 2210 60.5 26.2 27 13.5 WNW | 299 17.0 WNW | 301 81.0 60.3
9/1/26 - 2200 61.1 26.7 27 13.7 WNW | 300 17.4 WNW | 297 81.0 60.8
9/1/26 - 2150 61.6 27.4 27 13.7 WNW | 296 18.0 WNW | 290 81.0 61.2
9/1/26 - 2140 61.8 27.8 27 14.2 WNW | 301 19.4 WNW | 297 81.0 61.6
9/1/26 - 2130 62.0 28.0 27 13.0 NW | 304 17.5 NW | 318 81.0 61.7
9/1/26 - 2120 62.2 28.2 27 12.8 NW | 308 17.0 NW | 313 81.0 62.0
9/1/26 - 2110 62.6 28.5 27 12.0 NW | 305 18.4 NW | 305 81.0 62.4
9/1/26 - 2100 63.2 28.7 27 11.8 NW | 307 17.9 NW | 305 81.0 62.9
9/1/26 - 2050 63.2 28.5 27 11.2 NW | 307 15.4 NW | 305 81.0 63.0
9/1/26 - 2040 63.6 28.6 27 11.4 WNW | 302 15.2 WNW | 297 81.0 63.2
9/1/26 - 2030 64.4 28.8 26 11.4 WNW | 299 18.3 WNW | 283 81.0 63.2
9/1/26 - 2020 65.4 29.0 25 15.1 WNW | 292 20.5 WNW | 302 81.0 63.2
9/1/26 - 2010 66.0 28.9 25 15.4 WNW | 303 23.3 WNW | 299 81.0 63.2
9/1/26 - 2000 66.1 28.6 24 13.6 NW | 308 20.3 NW | 315 81.0 63.2
9/1/26 - 1950 66.7 28.8 24 13.5 WNW | 285 21.0 WNW | 286 81.0 63.2
9/1/26 - 1940 67.7 28.4 23 14.6 WNW | 282 21.9 WNW | 282 81.0 63.2
9/1/26 - 1930 68.6 28.4 22 13.2 WNW | 285 19.6 W | 280 81.0 63.2
9/1/26 - 1920 69.5 27.5 21 14.0 WNW | 286 20.3 WNW | 291 81.0 63.2
9/1/26 - 1910 70.4 27.3 20 16.2 W | 281 22.1 WNW | 289 81.0 63.2
9/1/26 - 1900 71.3 29.0 21 19.5 WNW | 282 26.9 WNW | 287 81.0 63.2
9/1/26 - 1850 72.1 31.4 22 20.0 W | 281 25.8 WNW | 288 81.0 63.2
9/1/26 - 1840 73.0 33.0 23 18.8 WNW | 286 26.5 W | 275 81.0 63.2
9/1/26 - 1830 73.6 33.2 23 18.4 WNW | 282 26.2 W | 269 81.0 63.2
9/1/26 - 1820 74.2 34.0 23 17.8 WNW | 282 24.5 WNW | 287 81.0 63.2
9/1/26 - 1810 74.8 34.7 23 18.1 W | 276 25.2 W | 276 81.0 63.2
9/1/26 - 1800 75.1 34.4 23 17.3 W | 273 22.6 W | 268 81.0 63.2
9/1/26 - 1750 75.7 34.8 23 17.8 WNW | 283 28.2 WNW | 283 81.0 63.2
9/1/26 - 1740 76.0 35.6 23 16.4 W | 277 24.9 W | 281 81.0 63.2
9/1/26 - 1730 76.3 36.5 24 17.8 WNW | 282 26.4 WNW | 284 81.0 63.2
9/1/26 - 1720 76.6 37.3 24 17.8 WNW | 286 25.4 WNW | 299 81.0 63.2
9/1/26 - 1710 76.8 38.2 25 17.3 WNW | 285 24.3 W | 275 81.0 63.2
9/1/26 - 1700 76.6 38.2 25 19.6 WNW | 287 28.5 WNW | 285 81.0 63.2
9/1/26 - 1650 77.2 38.6 25 18.3 WNW | 284 28.1 WNW | 289 81.0 63.2
9/1/26 - 1640 77.3 38.3 25 17.6 WNW | 289 27.4 WNW | 299 81.0 63.2
9/1/26 - 1630 77.9 38.3 24 18.3 WNW | 282 28.7 WNW | 282 81.0 63.2
9/1/26 - 1620 77.5 38.3 24 17.8 WNW | 294 24.6 WNW | 284 81.0 63.2
9/1/26 - 1610 78.1 38.9 24 15.4 WNW | 290 26.8 WNW | 292 81.0 63.2
9/1/26 - 1600 78.8 39.2 24 14.7 W | 275 23.5 W | 260 81.0 63.2
9/1/26 - 1550 78.7 39.0 24 15.9 W | 274 24.1 W | 264 81.0 63.2
9/1/26 - 1540 78.4 39.1 24 16.8 WNW | 296 27.7 NW | 304 81.0 63.2
9/1/26 - 1530 78.6 38.3 24 18.9 WNW | 282 28.5 W | 264 81.0 63.2
9/1/26 - 1520 79.4 38.3 23 15.0 W | 268 24.0 W | 259 81.0 63.2
9/1/26 - 1510 79.6 39.6 24 17.3 W | 266 25.7 W | 262 81.0 63.2
9/1/26 - 1500 80.0 40.0 24 16.2 W | 273 25.6 WNW | 287 81.0 63.2
9/1/26 - 1450 79.2 40.0 25 16.3 WNW | 289 25.1 W | 274 81.0 63.2
9/1/26 - 1440 80.0 40.3 24 15.5 W | 269 24.5 W | 280 81.0 63.2
9/1/26 - 1430 79.3 40.4 25 12.9 W | 270 25.9 WNW | 286 80.4 63.2
9/1/26 - 1420 78.9 40.7 26 14.8 WNW | 290 24.0 WNW | 298 80.0 63.2
9/1/26 - 1410 78.1 40.0 26 13.0 WNW | 296 22.9 WNW | 293 80.0 63.2
9/1/26 - 1400 78.7 39.3 24 15.0 WNW | 288 25.4 W | 277 80.0 63.2
9/1/26 - 1350 78.9 38.9 24 14.1 W | 277 23.4 WNW | 282 80.0 63.2
9/1/26 - 1340 78.0 38.0 24 14.7 WNW | 290 24.1 NW | 305 80.0 63.2
9/1/26 - 1330 79.0 37.9 23 13.1 W | 278 24.4 WSW | 258 80.0 63.2
9/1/26 - 1320 78.3 37.6 23 12.8 W | 276 20.5 WNW | 289 79.8 63.2
9/1/26 - 1310 78.5 38.0 23 13.9 W | 264 23.1 WSW | 253 79.8 63.2
9/1/26 - 1300 78.3 38.1 24 14.5 WNW | 282 28.5 WNW | 296 79.4 63.2
9/1/26 - 1250 78.0 38.3 24 14.5 W | 273 26.3 WNW | 292 79.4 63.2
9/1/26 - 1240 78.3 37.8 23 14.4 WSW | 256 24.6 W | 270 79.4 63.2
9/1/26 - 1230 78.3 38.1 24 11.9 W | 276 20.0 WSW | 257 79.4 63.2
9/1/26 - 1220 77.9 37.2 23 15.3 NW | 305 24.4 NW | 315 79.4 63.2
9/1/26 - 1210 77.9 37.7 23 13.3 W | 276 20.7 WSW | 258 79.4 63.2
9/1/26 - 1200 78.5 38.0 23 12.7 W | 268 24.3 NW | 307 79.4 63.2
9/1/26 - 1150 77.4 37.7 24 10.8 WNW | 287 17.8 WNW | 282 79.0 63.2
9/1/26 - 1140 77.8 38.3 24 12.6 W | 262 22.1 W | 267 79.0 63.2
9/1/26 - 1130 76.9 38.7 25 14.8 W | 280 25.3 WNW | 293 78.0 63.2
9/1/26 - 1120 76.5 37.4 24 12.4 WNW | 289 18.6 W | 279 77.7 63.2
9/1/26 - 1110 76.8 37.7 24 14.0 W | 273 23.8 WSW | 250 77.7 63.2
9/1/26 - 1100 75.4 36.6 24 12.8 WNW | 286 24.1 WNW | 283 76.2 63.2
9/1/26 - 1050 75.4 35.6 23 13.5 WNW | 285 22.6 W | 274 76.2 63.2
9/1/26 - 1040 75.2 32.6 21 14.5 WNW | 290 22.9 WNW | 285 75.4 63.2
9/1/26 - 1030 74.8 31.1 20 13.2 WNW | 300 20.2 WNW | 293 75.3 63.2
9/1/26 - 1020 74.3 32.2 21 15.6 WNW | 298 24.8 WNW | 286 74.8 63.2
9/1/26 - 1010 74.0 31.4 21 14.0 WNW | 299 24.0 WNW | 294 74.8 63.2
9/1/26 - 1000 73.5 28.8 19 15.2 WNW | 299 22.3 NW | 309 73.9 63.2
9/1/26 - 0950 73.0 29.0 19 17.4 WNW | 294 24.4 NW | 307 73.6 63.2
9/1/26 - 0940 73.2 28.7 19 16.0 WNW | 298 23.4 W | 281 73.6 63.2
9/1/26 - 0930 72.7 27.2 18 15.0 NW | 309 22.9 NW | 309 73.2 63.2
9/1/26 - 0920 72.1 26.4 18 14.7 NW | 312 23.2 NW | 312 72.5 63.2
9/1/26 - 0910 71.5 26.1 18 13.7 NW | 315 19.4 NW | 308 71.9 63.2
9/1/26 - 0900 70.9 25.4 18 12.3 NW | 310 18.5 WNW | 299 71.3 63.2
9/1/26 - 0850 70.3 24.5 18 11.8 NW | 307 17.0 NW | 306 70.6 63.2
9/1/26 - 0840 70.1 23.6 17 11.8 NW | 307 16.9 WNW | 299 70.5 63.2
9/1/26 - 0830 69.6 22.8 17 12.4 NW | 310 18.6 NW | 310 69.9 63.2
Max 80.0 40.7 30 22.2 - 31.2 - 81.0 63.2
Avg 68.0 29.8 24 16.0 - 22.9 - - -
Min 57.9 21.5 17 10.8 - 15.2 - 60.1 57.6